Time,TemperatureF,DewpointF,PressureIn,WindDirection,WindDirectionDegrees,WindSpeedMPH,WindSpeedGustMPH,Humidity,HourlyPrecipIn,Conditions,Clouds,dailyrainin,SoftwareType,DateUTC
2013-05-10 00:03:00,61.0,48.0,-100.00,SSW,205,0.0,0.0,63,0.00,,,-99.99,,2013-05-10 04:03:00,
2013-05-10 00:12:00,61.0,47.0,-100.00,SW,225,0.0,0.0,60,0.00,,,-99.99,,2013-05-10 04:12:00,
2013-05-10 00:23:00,62.0,48.0,-100.00,WSW,255,0.0,1.0,61,0.00,,,-99.99,,2013-05-10 04:23:00,
2013-05-10 00:33:00,62.0,48.0,-100.00,South,180,0.0,1.0,60,0.00,,,-99.99,,2013-05-10 04:33:00,
2013-05-10 00:43:00,61.0,48.0,-100.00,SE,145,1.0,2.0,62,0.00,,,-99.99,,2013-05-10 04:43:00,
2013-05-10 00:52:00,60.0,46.0,-100.00,SE,140,1.0,3.0,59,0.00,,,-99.99,,2013-05-10 04:52:00,
2013-05-10 01:02:00,60.0,46.0,-100.00,South,170,2.0,3.0,59,0.00,,,-99.99,,2013-05-10 05:02:00,
2013-05-10 01:12:00,61.0,46.0,-100.00,SE,145,0.0,2.0,56,0.00,,,-99.99,,2013-05-10 05:12:00,
2013-05-10 01:22:00,61.0,47.0,-100.00,SSE,160,0.0,0.0,59,0.00,,,-99.99,,2013-05-10 05:22:00,
2013-05-10 01:32:00,61.0,45.0,-100.00,ENE,60,0.0,3.0,55,0.00,,,-99.99,,2013-05-10 05:32:00,
2013-05-10 01:42:00,61.0,47.0,-100.00,SE,145,0.0,1.0,58,0.00,,,-99.99,,2013-05-10 05:42:00,
2013-05-10 01:52:00,60.0,46.0,-100.00,East,100,0.0,0.0,59,0.00,,,-99.99,,2013-05-10 05:52:00,
2013-05-10 02:02:00,60.0,47.0,-100.00,ENE,65,0.0,0.0,63,0.00,,,-99.99,,2013-05-10 06:02:00,
2013-05-10 02:12:00,59.0,47.0,-100.00,SE,130,0.0,0.0,66,0.00,,,-99.99,,2013-05-10 06:12:00,
2013-05-10 02:21:00,58.0,47.0,-100.00,ESE,120,0.0,0.0,65,0.00,,,-99.99,,2013-05-10 06:21:00,
2013-05-10 02:32:00,58.0,46.0,-100.00,South,170,0.0,0.0,65,0.00,,,-99.99,,2013-05-10 06:32:00,
2013-05-10 02:42:00,57.0,47.0,-100.00,SSE,165,2.0,3.0,67,0.00,,,-99.99,,2013-05-10 06:42:00,
2013-05-10 02:51:00,58.0,46.0,-100.00,South,175,1.0,3.0,63,0.00,,,-99.99,,2013-05-10 06:51:00,
2013-05-10 03:02:00,59.0,45.0,-100.00,SE,130,0.0,1.0,61,0.00,,,-99.99,,2013-05-10 07:02:00,
2013-05-10 03:12:00,59.0,46.0,-100.00,ESE,110,0.0,1.0,60,0.00,,,-99.99,,2013-05-10 07:12:00,
2013-05-10 03:22:00,58.0,46.0,-100.00,NNW,330,0.0,1.0,64,0.00,,,-99.99,,2013-05-10 07:22:00,
2013-05-10 03:32:00,58.0,46.0,-100.00,NNE,15,0.0,2.0,64,0.00,,,-99.99,,2013-05-10 07:32:00,
2013-05-10 03:42:00,59.0,46.0,-100.00,West,260,0.0,1.0,63,0.00,,,-99.99,,2013-05-10 07:42:00,
2013-05-10 03:52:00,59.0,46.0,-100.00,South,170,0.0,1.0,62,0.00,,,-99.99,,2013-05-10 07:52:00,
2013-05-10 04:02:00,59.0,46.0,-100.00,South,180,1.0,2.0,60,0.00,,,-99.99,,2013-05-10 08:02:00,
2013-05-10 04:12:00,59.0,46.0,-100.00,SE,135,1.0,3.0,61,0.00,,,-99.99,,2013-05-10 08:12:00,
2013-05-10 04:22:00,60.0,46.0,-100.00,SSE,155,4.0,6.0,60,0.00,,,-99.99,,2013-05-10 08:22:00,
2013-05-10 04:32:00,60.0,47.0,-100.00,SSE,155,3.0,6.0,61,0.00,,,-99.99,,2013-05-10 08:32:00,
2013-05-10 04:42:00,60.0,47.0,-100.00,SE,135,1.0,6.0,61,0.00,,,-99.99,,2013-05-10 08:42:00,
2013-05-10 04:52:00,60.0,47.0,-100.00,SE,140,0.0,2.0,61,0.00,,,-99.99,,2013-05-10 08:52:00,
2013-05-10 05:02:00,60.0,48.0,-100.00,South,180,1.0,3.0,63,0.00,,,-99.99,,2013-05-10 09:02:00,
2013-05-10 05:11:00,60.0,48.0,-100.00,SSE,160,2.0,3.0,65,0.00,,,-99.99,,2013-05-10 09:11:00,
2013-05-10 05:21:00,60.0,49.0,-100.00,SSE,160,2.0,5.0,66,0.00,,,-99.99,,2013-05-10 09:21:00,
2013-05-10 05:33:00,60.0,49.0,-100.00,SE,145,2.0,6.0,66,0.00,,,-99.99,,2013-05-10 09:33:00,
2013-05-10 05:43:00,60.0,49.0,-100.00,South,170,3.0,7.0,66,0.00,,,-99.99,,2013-05-10 09:43:00,
2013-05-10 05:52:00,61.0,50.0,-100.00,SE,145,4.0,7.0,67,0.00,,,-99.99,,2013-05-10 09:52:00,
2013-05-10 06:03:00,61.0,50.0,-100.00,SSE,155,4.0,6.0,67,0.00,,,-99.99,,2013-05-10 10:03:00,
2013-05-10 06:12:00,61.0,51.0,-100.00,SSW,195,6.0,7.0,69,0.00,,,-99.99,,2013-05-10 10:12:00,
2013-05-10 06:23:00,61.0,53.0,-100.00,SSW,200,14.0,21.0,74,0.00,,,-99.99,,2013-05-10 10:23:00,
2013-05-10 06:32:00,61.0,53.0,-100.00,SSW,205,9.0,16.0,76,0.00,,,-99.99,,2013-05-10 10:32:00,
2013-05-10 06:42:00,60.0,54.0,-100.00,SW,215,9.0,19.0,79,0.00,,,-99.99,,2013-05-10 10:42:00,
2013-05-10 06:52:00,60.0,54.0,-100.00,South,190,8.0,12.0,81,0.00,,,-99.99,,2013-05-10 10:52:00,
2013-05-10 07:02:00,60.0,54.0,-100.00,South,175,5.0,11.0,82,0.00,,,-99.99,,2013-05-10 11:02:00,
2013-05-10 07:12:00,59.0,55.0,-100.00,SSE,165,6.0,9.0,83,0.00,,,-99.99,,2013-05-10 11:12:00,
2013-05-10 07:22:00,59.0,55.0,-100.00,SSE,155,4.0,9.0,84,0.00,,,-99.99,,2013-05-10 11:22:00,
2013-05-10 07:32:00,59.0,55.0,-100.00,SSE,165,6.0,9.0,85,0.00,,,-99.99,,2013-05-10 11:32:00,
2013-05-10 07:42:00,60.0,55.0,-100.00,South,175,4.0,9.0,85,0.00,,,-99.99,,2013-05-10 11:42:00,
2013-05-10 07:51:00,60.0,55.0,-100.00,SSE,160,4.0,7.0,85,0.00,,,-99.99,,2013-05-10 11:51:00,
2013-05-10 08:02:00,60.0,56.0,-100.00,SSE,150,6.0,7.0,86,0.00,,,-99.99,,2013-05-10 12:02:00,
2013-05-10 08:12:00,60.0,56.0,-100.00,SSE,150,4.0,7.0,86,0.00,,,-99.99,,2013-05-10 12:12:00,
2013-05-10 08:21:00,60.0,56.0,-100.00,SE,145,6.0,7.0,86,0.00,,,-99.99,,2013-05-10 12:21:00,
2013-05-10 08:32:00,61.0,56.0,-100.00,SE,140,6.0,10.0,85,0.00,,,-99.99,,2013-05-10 12:32:00,
2013-05-10 08:42:00,61.0,57.0,-100.00,SSE,150,7.0,12.0,85,0.00,,,-99.99,,2013-05-10 12:42:00,
2013-05-10 08:51:00,62.0,57.0,-100.00,SSE,155,6.0,9.0,84,0.00,,,-99.99,,2013-05-10 12:51:00,
2013-05-10 09:01:00,62.0,57.0,-100.00,SSE,155,7.0,14.0,82,0.00,,,-99.99,,2013-05-10 13:01:00,
2013-05-10 09:11:00,63.0,57.0,-100.00,SSE,155,6.0,12.0,79,0.00,,,-99.99,,2013-05-10 13:11:00,
2013-05-10 09:21:00,64.0,56.0,-100.00,SSE,155,9.0,14.0,75,0.00,,,-99.99,,2013-05-10 13:21:00,
2013-05-10 09:32:00,65.0,56.0,-100.00,South,180,11.0,17.0,71,0.00,,,-99.99,,2013-05-10 13:32:00,
2013-05-10 09:42:00,66.0,56.0,-100.00,South,180,9.0,16.0,69,0.00,,,-99.99,,2013-05-10 13:42:00,
2013-05-10 09:52:00,67.0,56.0,-100.00,South,175,11.0,21.0,68,0.00,,,-99.99,,2013-05-10 13:52:00,
2013-05-10 10:02:00,67.0,56.0,-100.00,South,175,14.0,19.0,67,0.00,,,-99.99,,2013-05-10 14:02:00,
2013-05-10 10:11:00,67.0,56.0,-100.00,South,190,11.0,19.0,66,0.00,,,-99.99,,2013-05-10 14:11:00,
2013-05-10 10:21:00,67.0,56.0,-100.00,South,185,11.0,19.0,66,0.00,,,-99.99,,2013-05-10 14:21:00,
2013-05-10 10:32:00,68.0,56.0,-100.00,SSW,200,11.0,15.0,66,0.00,,,-99.99,,2013-05-10 14:32:00,
2013-05-10 10:42:00,68.0,56.0,-100.00,SSW,205,11.0,21.0,66,0.00,,,-99.99,,2013-05-10 14:42:00,
2013-05-10 10:51:00,68.0,56.0,-100.00,South,185,11.0,19.0,66,0.00,,,-99.99,,2013-05-10 14:51:00,
2013-05-10 11:02:00,68.0,56.0,-100.00,SSW,195,13.0,20.0,66,0.00,,,-99.99,,2013-05-10 15:02:00,
2013-05-10 11:20:00,-999.0,-99.9,-100.00,South,185,9.0,18.0,65,0.00,,,-99.99,,2013-05-10 15:20:00,
2013-05-10 11:32:00,70.0,57.0,-100.00,SSW,195,12.0,22.0,63,0.00,,,-99.99,,2013-05-10 15:32:00,
2013-05-10 11:42:00,70.0,57.0,-100.00,South,180,12.0,17.0,63,0.00,,,-99.99,,2013-05-10 15:42:00,
2013-05-10 11:52:00,71.0,56.0,-100.00,SSW,195,16.0,22.0,61,0.00,,,-99.99,,2013-05-10 15:52:00,
2013-05-10 12:02:00,71.0,58.0,-100.00,South,185,14.0,20.0,62,0.00,,,-99.99,,2013-05-10 16:02:00,
2013-05-10 12:12:00,71.0,57.0,-100.00,SSW,195,11.0,19.0,61,0.00,,,-99.99,,2013-05-10 16:12:00,
2013-05-10 12:23:00,72.0,58.0,-100.00,South,185,9.0,19.0,60,0.00,,,-99.99,,2013-05-10 16:23:00,
2013-05-10 12:33:00,71.0,58.0,-100.00,South,175,14.0,22.0,61,0.00,,,-99.99,,2013-05-10 16:33:00,
2013-05-10 12:42:00,71.0,58.0,-100.00,South,175,16.0,22.0,62,0.00,,,-99.99,,2013-05-10 16:42:00,
2013-05-10 12:52:00,71.0,58.0,-100.00,South,175,16.0,22.0,61,0.00,,,-99.99,,2013-05-10 16:52:00,
2013-05-10 13:02:00,71.0,58.0,-100.00,South,185,12.0,21.0,61,0.00,,,-99.99,,2013-05-10 17:02:00,
2013-05-10 13:12:00,72.0,58.0,-100.00,SSE,160,14.0,22.0,62,0.00,,,-99.99,,2013-05-10 17:12:00,
2013-05-10 13:22:00,72.0,58.0,-100.00,SSW,200,15.0,20.0,60,0.00,,,-99.99,,2013-05-10 17:22:00,
2013-05-10 13:32:00,73.0,58.0,-100.00,SSW,200,9.0,21.0,60,0.00,,,-99.99,,2013-05-10 17:32:00,
2013-05-10 13:42:00,72.0,58.0,-100.00,South,175,11.0,18.0,61,0.00,,,-99.99,,2013-05-10 17:42:00,
2013-05-10 13:52:00,73.0,58.0,-100.00,SSW,195,11.0,20.0,59,0.00,,,-99.99,,2013-05-10 17:52:00,
2013-05-10 14:10:00,-999.0,-99.9,-100.00,South,175,11.0,20.0,58,0.00,,,-99.99,,2013-05-10 18:10:00,
2013-05-10 14:22:00,74.0,58.0,-100.00,SSE,155,12.0,25.0,58,0.00,,,-99.99,,2013-05-10 18:22:00,
2013-05-10 14:34:00,74.0,58.0,-100.00,South,175,14.0,21.0,57,0.00,,,-99.99,,2013-05-10 18:34:00,
2013-05-10 14:43:00,74.0,58.0,-100.00,South,175,13.0,21.0,57,0.00,,,-99.99,,2013-05-10 18:43:00,
2013-05-10 14:54:00,74.0,58.0,-100.00,South,185,10.0,16.0,56,0.00,,,-99.99,,2013-05-10 18:54:00,
2013-05-10 15:02:00,74.0,58.0,-100.00,SSE,165,12.0,17.0,56,0.00,,,-99.99,,2013-05-10 19:02:00,
2013-05-10 15:11:00,74.0,58.0,-100.00,SSW,195,19.0,30.0,56,0.00,,,-99.99,,2013-05-10 19:11:00,
2013-05-10 15:21:00,74.0,58.0,-100.00,South,175,15.0,25.0,57,0.00,,,-99.99,,2013-05-10 19:21:00,
2013-05-10 15:32:00,75.0,58.0,-100.00,South,175,11.0,22.0,55,0.00,,,-99.99,,2013-05-10 19:32:00,
2013-05-10 15:42:00,75.0,58.0,-100.00,South,175,11.0,24.0,55,0.00,,,-99.99,,2013-05-10 19:42:00,
2013-05-10 15:52:00,74.0,58.0,-100.00,South,190,13.0,19.0,56,0.00,,,-99.99,,2013-05-10 19:52:00,
2013-05-10 16:02:00,74.0,58.0,-100.00,SSE,160,12.0,19.0,56,0.00,,,-99.99,,2013-05-10 20:02:00,
2013-05-10 16:12:00,74.0,58.0,-100.00,SSW,205,11.0,22.0,56,0.00,,,-99.99,,2013-05-10 20:12:00,
2013-05-10 16:21:00,74.0,57.0,-100.00,South,185,15.0,21.0,56,0.00,,,-99.99,,2013-05-10 20:21:00,
2013-05-10 16:32:00,73.0,57.0,-100.00,South,190,13.0,21.0,56,0.00,,,-99.99,,2013-05-10 20:32:00,
2013-05-10 16:42:00,73.0,57.0,-100.00,SSW,200,14.0,20.0,56,0.00,,,-99.99,,2013-05-10 20:42:00,
2013-05-10 16:52:00,73.0,58.0,-100.00,South,170,9.0,20.0,58,0.00,,,-99.99,,2013-05-10 20:52:00,
2013-05-10 17:02:00,72.0,58.0,-100.00,South,185,8.0,23.0,62,0.00,,,-99.99,,2013-05-10 21:02:00,
2013-05-10 17:11:00,71.0,59.0,-100.00,SE,140,6.0,13.0,65,0.00,,,-99.99,,2013-05-10 21:11:00,
2013-05-10 17:25:00,61.0,58.0,-100.00,SSW,195,21.0,48.0,90,3.94,,,-99.99,,2013-05-10 21:25:00,
2013-05-10 17:32:00,59.0,57.0,-100.00,SSW,200,17.0,24.0,92,0.00,,,-99.99,,2013-05-10 21:32:00,
2013-05-10 17:43:00,59.0,57.0,-100.00,SSW,195,13.0,25.0,92,0.00,,,-99.99,,2013-05-10 21:43:00,
2013-05-10 17:52:00,60.0,58.0,-100.00,SSW,195,7.0,15.0,92,0.55,,,-99.99,,2013-05-10 21:52:00,
2013-05-10 18:02:00,60.0,58.0,-100.00,South,180,8.0,16.0,92,0.00,,,-99.99,,2013-05-10 22:02:00,
2013-05-10 18:13:00,59.0,57.0,-100.00,South,175,9.0,13.0,92,0.00,,,-99.99,,2013-05-10 22:13:00,
2013-05-10 18:22:00,59.0,57.0,-100.00,South,175,7.0,11.0,92,0.00,,,-99.99,,2013-05-10 22:22:00,
2013-05-10 18:32:00,60.0,57.0,-100.00,SSE,160,7.0,11.0,92,0.00,,,-99.99,,2013-05-10 22:32:00,
2013-05-10 18:42:00,60.0,58.0,-100.00,SSE,150,4.0,10.0,92,0.00,,,-99.99,,2013-05-10 22:42:00,
2013-05-10 18:52:00,60.0,57.0,-100.00,SSE,165,7.0,9.0,92,0.00,,,-99.99,,2013-05-10 22:52:00,
2013-05-10 19:02:00,60.0,58.0,-100.00,South,170,7.0,10.0,91,0.00,,,-99.99,,2013-05-10 23:02:00,
2013-05-10 19:12:00,60.0,57.0,-100.00,South,170,6.0,9.0,91,0.00,,,-99.99,,2013-05-10 23:12:00,
2013-05-10 19:22:00,60.0,57.0,-100.00,SSE,165,6.0,11.0,91,0.00,,,-99.99,,2013-05-10 23:22:00,
2013-05-10 19:33:00,60.0,57.0,-100.00,SSE,165,6.0,9.0,90,0.00,,,-99.99,,2013-05-10 23:33:00,
2013-05-10 19:42:00,60.0,57.0,-100.00,SSE,165,7.0,11.0,90,0.00,,,-99.99,,2013-05-10 23:42:00,
2013-05-10 19:52:00,60.0,57.0,-100.00,SSE,165,6.0,11.0,89,0.00,,,-99.99,,2013-05-10 23:52:00,
2013-05-10 20:02:00,60.0,57.0,-100.00,SSE,155,6.0,9.0,89,0.00,,,-99.99,,2013-05-11 00:02:00,
2013-05-10 20:11:00,60.0,57.0,-100.00,SSE,160,4.0,9.0,89,0.00,,,-99.99,,2013-05-11 00:11:00,
2013-05-10 20:21:00,60.0,57.0,-100.00,SSE,160,6.0,9.0,89,0.00,,,-99.99,,2013-05-11 00:21:00,
2013-05-10 20:32:00,60.0,57.0,-100.00,SSE,165,3.0,8.0,90,0.00,,,-99.99,,2013-05-11 00:32:00,
2013-05-10 20:42:00,60.0,57.0,-100.00,SSE,155,6.0,9.0,90,0.00,,,-99.99,,2013-05-11 00:42:00,
2013-05-10 20:52:00,60.0,57.0,-100.00,South,180,4.0,10.0,90,0.00,,,-99.99,,2013-05-11 00:52:00,
2013-05-10 21:01:00,60.0,57.0,-100.00,SSE,155,3.0,6.0,90,0.00,,,-99.99,,2013-05-11 01:01:00,
2013-05-10 21:11:00,60.0,57.0,-100.00,SSE,160,4.0,6.0,90,0.00,,,-99.99,,2013-05-11 01:11:00,
2013-05-10 21:21:00,60.0,57.0,-100.00,SSE,155,3.0,6.0,90,0.00,,,-99.99,,2013-05-11 01:21:00,
2013-05-10 21:32:00,60.0,57.0,-100.00,South,170,4.0,6.0,90,0.00,,,-99.99,,2013-05-11 01:32:00,
2013-05-10 21:42:00,60.0,57.0,-100.00,SSE,150,4.0,6.0,90,0.00,,,-99.99,,2013-05-11 01:42:00,
2013-05-10 21:52:00,60.0,57.0,-100.00,SSE,160,3.0,5.0,90,0.00,,,-99.99,,2013-05-11 01:52:00,
2013-05-10 22:02:00,60.0,57.0,-100.00,SSE,155,4.0,7.0,90,0.00,,,-99.99,,2013-05-11 02:02:00,
2013-05-10 22:11:00,60.0,57.0,-100.00,SSE,160,4.0,6.0,90,0.00,,,-99.99,,2013-05-11 02:11:00,
2013-05-10 22:22:00,60.0,57.0,-100.00,South,170,5.0,7.0,90,0.00,,,-99.99,,2013-05-11 02:22:00,
2013-05-10 22:32:00,60.0,57.0,-100.00,South,180,4.0,8.0,90,0.00,,,-99.99,,2013-05-11 02:32:00,
2013-05-10 22:42:00,60.0,57.0,-100.00,South,170,4.0,7.0,90,0.00,,,-99.99,,2013-05-11 02:42:00,
2013-05-10 22:52:00,60.0,57.0,-100.00,South,170,4.0,7.0,90,0.00,,,-99.99,,2013-05-11 02:52:00,
2013-05-10 23:01:00,60.0,57.0,-100.00,SSE,165,4.0,7.0,90,0.00,,,-99.99,,2013-05-11 03:01:00,
2013-05-10 23:11:00,60.0,57.0,-100.00,South,170,4.0,6.0,90,0.00,,,-99.99,,2013-05-11 03:11:00,
2013-05-10 23:21:00,60.0,57.0,-100.00,SSE,165,4.0,7.0,90,0.00,,,-99.99,,2013-05-11 03:21:00,
2013-05-10 23:33:00,60.0,57.0,-100.00,SE,145,3.0,9.0,90,0.00,,,-99.99,,2013-05-11 03:33:00,
2013-05-10 23:42:00,60.0,57.0,-100.00,South,175,4.0,6.0,90,0.00,,,-99.99,,2013-05-11 03:42:00,
2013-05-10 23:53:00,60.0,58.0,-100.00,SSW,195,4.0,7.0,90,0.00,,,-99.99,,2013-05-11 03:53:00,